createdAt,value
2023-12-01T00:00:41.979Z,89.95
2023-12-01T00:03:09.748Z,90.08
2023-12-01T00:05:37.456Z,90.49
2023-12-01T00:08:05.357Z,89.96
2023-12-01T00:10:33.040Z,90.44
2023-12-01T00:13:00.755Z,90.26
2023-12-01T00:15:29.868Z,90.65
2023-12-01T00:17:57.662Z,91.13
2023-12-01T00:20:25.435Z,90.51
2023-12-01T00:22:53.878Z,90.55
2023-12-01T00:25:21.620Z,90.70
2023-12-01T00:27:49.328Z,90.64
2023-12-01T00:30:17.185Z,90.61
2023-12-01T00:32:46.393Z,90.54
2023-12-01T00:35:14.201Z,90.23
2023-12-01T00:37:41.880Z,90.52
2023-12-01T00:40:11.345Z,90.44
2023-12-01T00:42:39.182Z,90.60
2023-12-01T00:45:07.600Z,90.42
2023-12-01T00:47:35.375Z,90.22
2023-12-01T00:50:05.059Z,90.43
2023-12-01T00:52:34.165Z,90.47
2023-12-01T00:55:02.953Z,90.60
2023-12-01T00:57:30.706Z,90.48
2023-12-01T00:59:58.429Z,90.84
2023-12-01T01:02:26.114Z,90.41
2023-12-01T01:04:53.915Z,90.50
2023-12-01T01:07:23.015Z,90.85
2023-12-01T01:09:50.731Z,89.41
2023-12-01T01:12:18.410Z,89.37
2023-12-01T01:14:46.121Z,89.15
2023-12-01T01:17:13.826Z,89.55
2023-12-01T01:19:41.516Z,89.76
2023-12-01T01:22:09.233Z,89.91
2023-12-01T01:24:38.383Z,89.64
2023-12-01T01:27:06.401Z,89.38
2023-12-01T01:29:34.160Z,89.41
2023-12-01T01:32:01.870Z,88.08
2023-12-01T01:34:29.551Z,88.35
2023-12-01T01:36:57.389Z,88.18
2023-12-01T01:39:25.136Z,88.38
2023-12-01T01:41:54.221Z,88.48
2023-12-01T01:44:21.903Z,88.35
2023-12-01T01:46:51.625Z,88.02
2023-12-01T01:49:20.020Z,87.64
2023-12-01T01:51:48.136Z,87.65
2023-12-01T01:54:16.650Z,87.69
2023-12-01T01:56:46.305Z,88.63
2023-12-01T01:59:15.406Z,87.94
2023-12-01T02:01:43.289Z,88.14
2023-12-01T02:04:11.262Z,87.86
2023-12-01T02:06:39.021Z,88.50
2023-12-01T02:09:07.460Z,88.76
2023-12-01T02:11:35.347Z,88.62
2023-12-01T02:14:03.369Z,88.97
2023-12-01T02:16:32.449Z,89.14
2023-12-01T02:19:00.450Z,88.84
2023-12-01T02:21:30.491Z,89.21
2023-12-01T02:24:00.726Z,89.15
2023-12-01T02:26:28.416Z,89.14
2023-12-01T02:28:56.044Z,87.95
2023-12-01T02:31:23.775Z,88.95
2023-12-01T02:33:55.121Z,88.29
2023-12-01T02:36:22.908Z,88.38
2023-12-01T02:38:50.571Z,88.26
2023-12-01T02:41:19.821Z,87.71
2023-12-01T02:43:47.835Z,88.33
2023-12-01T02:46:15.591Z,87.26
2023-12-01T02:48:43.557Z,87.59
2023-12-01T02:51:11.282Z,87.73
2023-12-01T02:53:38.922Z,88.00
2023-12-01T02:56:07.306Z,88.21
2023-12-01T02:58:36.365Z,87.97
2023-12-01T03:01:04.547Z,88.11
2023-12-01T03:03:32.360Z,87.93
2023-12-01T03:06:00.031Z,88.27
2023-12-01T03:08:27.712Z,88.05
2023-12-01T03:10:56.440Z,87.75
2023-12-01T03:13:25.124Z,88.03
2023-12-01T03:15:54.312Z,88.28
2023-12-01T03:18:24.034Z,88.29
2023-12-01T03:20:52.137Z,88.17
2023-12-01T03:23:19.821Z,88.28
2023-12-01T03:25:47.502Z,88.22
2023-12-01T03:28:16.067Z,88.05
2023-12-01T03:30:44.152Z,88.14
2023-12-01T03:33:13.727Z,87.79
2023-12-01T03:35:41.536Z,87.74
2023-12-01T03:38:09.359Z,87.99
2023-12-01T03:40:37.021Z,88.08
2023-12-01T03:43:04.845Z,87.64
2023-12-01T03:45:32.508Z,87.90
2023-12-01T03:48:00.262Z,87.78
2023-12-01T03:50:29.860Z,87.76
2023-12-01T03:52:57.685Z,87.70
2023-12-01T03:55:25.474Z,87.60
2023-12-01T03:57:53.144Z,88.17
2023-12-01T04:00:23.015Z,87.83
2023-12-01T04:02:51.664Z,87.95
2023-12-01T04:05:22.587Z,87.63
2023-12-01T04:07:56.105Z,87.97
2023-12-01T04:10:26.099Z,87.72
2023-12-01T04:12:54.293Z,87.16
2023-12-01T04:15:26.605Z,87.88
2023-12-01T04:17:55.044Z,87.83
2023-12-01T04:20:23.757Z,87.81
2023-12-01T04:22:55.234Z,87.76
2023-12-01T04:25:23.061Z,87.64
2023-12-01T04:27:52.241Z,87.83
2023-12-01T04:30:21.812Z,87.82
2023-12-01T04:32:54.526Z,87.32
2023-12-01T04:35:23.326Z,87.22
2023-12-01T04:37:51.429Z,86.89
2023-12-01T04:40:20.626Z,86.61
2023-12-01T04:42:50.779Z,86.77
2023-12-01T04:45:19.878Z,87.44
2023-12-01T04:47:51.464Z,87.21
2023-12-01T04:50:20.760Z,87.51
2023-12-01T04:52:50.209Z,87.50
2023-12-01T04:55:20.287Z,87.45
2023-12-01T04:57:49.623Z,87.91
2023-12-01T05:00:22.130Z,87.75
2023-12-01T05:02:52.377Z,87.03
2023-12-01T05:05:21.742Z,87.57
2023-12-01T05:07:52.802Z,87.54
2023-12-01T05:10:23.375Z,87.13
2023-12-01T05:12:52.660Z,87.25
2023-12-01T05:15:21.791Z,87.73
2023-12-01T05:17:50.816Z,86.87
2023-12-01T05:20:20.339Z,87.12
2023-12-01T05:22:49.460Z,87.00
2023-12-01T05:25:19.338Z,87.10
2023-12-01T05:27:50.272Z,86.79
2023-12-01T05:30:19.930Z,87.42
2023-12-01T05:32:48.977Z,87.74
2023-12-01T05:35:17.569Z,87.99
2023-12-01T05:37:49.059Z,87.37
2023-12-01T05:40:18.078Z,87.57
2023-12-01T05:42:48.360Z,87.37
2023-12-01T05:45:17.577Z,87.52
2023-12-01T05:47:46.484Z,87.76
2023-12-01T05:50:15.440Z,87.58
2023-12-01T05:52:44.686Z,87.72
2023-12-01T05:55:19.133Z,87.65
2023-12-01T05:57:50.288Z,87.32
2023-12-01T06:00:19.603Z,87.84
2023-12-01T06:02:48.202Z,87.54
2023-12-01T06:05:16.749Z,88.09
2023-12-01T06:07:50.926Z,87.75
2023-12-01T06:10:19.451Z,87.99
2023-12-01T06:12:49.329Z,87.96
2023-12-01T06:15:19.444Z,88.27
2023-12-01T06:17:49.094Z,88.68
2023-12-01T06:20:21.554Z,88.53
2023-12-01T06:22:50.518Z,88.41
2023-12-01T06:25:19.971Z,88.52
2023-12-01T06:27:49.299Z,88.05
2023-12-01T06:30:17.553Z,88.73
2023-12-01T06:32:47.061Z,88.60
2023-12-01T06:35:16.017Z,88.73
2023-12-01T06:37:46.689Z,88.89
2023-12-01T06:40:17.646Z,88.87
2023-12-01T06:42:46.848Z,88.89
2023-12-01T06:45:17.362Z,88.82
2023-12-01T06:47:47.459Z,88.69
2023-12-01T06:50:16.424Z,88.45
2023-12-01T06:52:45.247Z,88.55
2023-12-01T06:55:13.648Z,88.40
2023-12-01T06:57:43.753Z,88.44
2023-12-01T07:00:31.041Z,87.98
2023-12-01T07:03:02.365Z,88.52
2023-12-01T07:05:32.739Z,87.99
2023-12-01T07:08:01.537Z,87.89
2023-12-01T07:10:30.059Z,88.13
2023-12-01T07:12:58.118Z,88.42
2023-12-01T07:15:26.604Z,88.12
2023-12-01T07:17:55.701Z,87.94
2023-12-01T07:20:25.822Z,87.60
2023-12-01T07:22:55.357Z,87.76
2023-12-01T07:25:25.413Z,87.73
2023-12-01T07:27:56.342Z,87.49
2023-12-01T07:30:24.775Z,87.46
2023-12-01T07:32:52.873Z,87.55
2023-12-01T07:35:20.595Z,88.08
2023-12-01T07:37:52.904Z,87.71
2023-12-01T07:40:21.667Z,87.83
2023-12-01T07:42:50.157Z,88.08
2023-12-01T07:45:19.392Z,87.71
2023-12-01T07:47:47.598Z,88.34
2023-12-01T07:50:18.676Z,88.19
2023-12-01T07:52:46.794Z,88.12
2023-12-01T07:55:16.293Z,88.57
2023-12-01T07:57:45.125Z,88.44
2023-12-01T08:00:16.118Z,87.64
2023-12-01T08:02:44.930Z,87.82
2023-12-01T08:05:16.439Z,87.44
2023-12-01T08:07:46.633Z,87.34
2023-12-01T08:10:18.066Z,87.58
2023-12-01T08:12:47.732Z,87.74
2023-12-01T08:15:15.765Z,87.84
2023-12-01T08:17:46.840Z,87.58
2023-12-01T08:20:16.023Z,88.28
2023-12-01T08:22:47.255Z,87.90
2023-12-01T08:25:16.997Z,87.66
2023-12-01T08:27:44.685Z,87.73
2023-12-01T08:30:18.859Z,88.27
2023-12-01T08:32:48.409Z,88.01
2023-12-01T08:35:16.779Z,88.15
2023-12-01T08:37:44.692Z,88.23
2023-12-01T08:40:14.639Z,88.32
2023-12-01T08:42:44.951Z,88.03
2023-12-01T08:45:12.989Z,88.30
2023-12-01T08:47:41.685Z,88.07
2023-12-01T08:50:11.957Z,87.80
2023-12-01T08:52:40.403Z,87.83
2023-12-01T08:55:09.145Z,88.30
2023-12-01T08:57:36.999Z,87.41
2023-12-01T09:00:07.891Z,86.98
2023-12-01T09:02:35.846Z,87.24
2023-12-01T09:05:05.417Z,87.11
2023-12-01T09:07:33.687Z,86.83
2023-12-01T09:10:01.483Z,87.13
2023-12-01T09:12:29.350Z,87.21
2023-12-01T09:14:57.298Z,87.13
2023-12-01T09:17:26.531Z,87.43
2023-12-01T09:19:54.320Z,87.91
2023-12-01T09:22:22.110Z,87.71
2023-12-01T09:24:50.735Z,87.59
2023-12-01T09:27:18.625Z,86.99
2023-12-01T09:29:46.494Z,87.01
2023-12-01T09:32:14.652Z,87.25
2023-12-01T09:34:43.743Z,87.25
2023-12-01T09:37:11.462Z,86.24
2023-12-01T09:39:39.147Z,86.45
2023-12-01T09:42:08.465Z,85.66
2023-12-01T09:44:37.196Z,85.79
2023-12-01T09:47:06.352Z,85.74
2023-12-01T09:49:35.808Z,86.07
2023-12-01T09:52:05.813Z,86.33
2023-12-01T09:54:33.687Z,86.33
2023-12-01T09:57:06.469Z,85.16
2023-12-01T09:59:37.292Z,85.13
2023-12-01T10:02:05.767Z,85.07
2023-12-01T10:04:35.082Z,84.95
2023-12-01T10:07:05.261Z,85.37
2023-12-01T10:09:33.977Z,86.08
2023-12-01T10:12:09.002Z,86.47
2023-12-01T10:14:37.096Z,86.11
2023-12-01T10:17:05.841Z,85.29
2023-12-01T10:19:34.487Z,85.81
2023-12-01T10:22:02.688Z,85.83
2023-12-01T10:24:32.400Z,85.35
2023-12-01T10:27:03.994Z,85.62
2023-12-01T10:29:33.099Z,85.67
2023-12-01T10:32:02.128Z,85.28
2023-12-01T10:34:30.067Z,85.98
2023-12-01T10:36:59.114Z,85.60
2023-12-01T10:39:28.543Z,85.73
2023-12-01T10:42:01.512Z,85.99
2023-12-01T10:44:32.259Z,85.62
2023-12-01T10:47:00.897Z,85.92
2023-12-01T10:49:28.962Z,85.75
2023-12-01T10:51:57.968Z,85.45
2023-12-01T10:54:28.705Z,85.22
2023-12-01T10:57:13.117Z,85.19
2023-12-01T10:59:45.512Z,85.18
2023-12-01T11:02:16.453Z,85.07
2023-12-01T11:04:46.068Z,85.10
2023-12-01T11:07:28.717Z,85.89
2023-12-01T11:10:08.342Z,85.62
2023-12-01T11:12:51.660Z,85.31
2023-12-01T11:15:24.062Z,84.43
2023-12-01T11:17:52.614Z,84.07
2023-12-01T11:20:38.630Z,85.28
2023-12-01T11:23:07.855Z,85.53
2023-12-01T11:25:43.127Z,84.83
2023-12-01T11:28:28.928Z,84.59
2023-12-01T11:31:01.544Z,84.81
2023-12-01T11:33:34.741Z,84.24
2023-12-01T11:36:25.431Z,85.01
2023-12-01T11:39:19.642Z,84.71
2023-12-01T11:41:57.299Z,84.22
2023-12-01T11:44:30.610Z,84.09
2023-12-01T11:47:01.677Z,84.47
2023-12-01T11:49:33.033Z,84.46
2023-12-01T11:52:02.185Z,84.73
2023-12-01T11:54:33.969Z,85.01
2023-12-01T11:57:03.314Z,84.65
2023-12-01T11:59:32.421Z,85.18
2023-12-01T12:02:00.271Z,84.48
2023-12-01T12:04:28.789Z,84.18
2023-12-01T12:06:57.150Z,84.79
2023-12-01T12:09:27.000Z,84.84
2023-12-01T12:11:56.567Z,85.17
2023-12-01T12:14:25.340Z,84.75
2023-12-01T12:16:54.922Z,84.51
2023-12-01T12:19:23.507Z,84.92
2023-12-01T12:21:51.572Z,84.53
2023-12-01T12:24:20.262Z,84.43
2023-12-01T12:26:57.346Z,84.12
2023-12-01T12:29:26.173Z,83.62
2023-12-01T12:31:55.500Z,84.18
2023-12-01T12:34:25.491Z,82.97
2023-12-01T12:36:53.882Z,83.45
2023-12-01T12:39:25.469Z,83.58
2023-12-01T12:41:58.706Z,83.96
2023-12-01T12:44:26.581Z,83.59
2023-12-01T12:47:03.412Z,83.72
2023-12-01T12:49:32.497Z,83.14
2023-12-01T12:52:00.960Z,83.46
2023-12-01T12:54:29.015Z,82.24
2023-12-01T12:56:56.849Z,82.46
2023-12-01T12:59:25.014Z,82.96
2023-12-01T13:01:52.983Z,82.96
2023-12-01T13:04:22.519Z,83.07
2023-12-01T13:06:50.886Z,83.52
2023-12-01T13:09:19.354Z,83.35
2023-12-01T13:11:47.868Z,83.37
2023-12-01T13:14:16.394Z,83.37
2023-12-01T13:16:54.636Z,82.75
2023-12-01T13:19:26.391Z,82.55
2023-12-01T13:21:56.397Z,83.55
2023-12-01T13:24:25.368Z,82.80
2023-12-01T13:26:53.381Z,83.68
2023-12-01T13:29:21.134Z,82.84
2023-12-01T13:31:49.694Z,82.51
2023-12-01T13:34:18.547Z,82.51
2023-12-01T13:36:49.469Z,83.16
2023-12-01T13:39:18.109Z,82.74
2023-12-01T13:41:46.613Z,83.63
2023-12-01T13:44:15.156Z,84.15
2023-12-01T13:46:43.362Z,84.26
2023-12-01T13:49:12.607Z,83.79
2023-12-01T13:51:40.627Z,83.64
2023-12-01T13:54:11.993Z,82.77
2023-12-01T13:56:40.678Z,82.60
2023-12-01T13:59:08.563Z,83.18
2023-12-01T14:01:36.583Z,82.93
2023-12-01T14:04:06.366Z,83.30
2023-12-01T14:06:34.368Z,82.93
2023-12-01T14:09:02.250Z,83.07
2023-12-01T14:11:31.416Z,83.28
2023-12-01T14:13:59.060Z,83.32
2023-12-01T14:16:26.822Z,82.46
2023-12-01T14:18:54.895Z,82.01
2023-12-01T14:21:22.926Z,82.38
2023-12-01T14:23:50.911Z,82.11
2023-12-01T14:26:18.982Z,82.72
2023-12-01T14:28:48.809Z,83.03
2023-12-01T14:31:16.517Z,83.17
2023-12-01T14:33:44.361Z,81.53
2023-12-01T14:36:13.162Z,81.95
2023-12-01T14:38:40.865Z,81.97
2023-12-01T14:41:09.766Z,82.13
2023-12-01T14:43:37.644Z,81.59
2023-12-01T14:46:07.773Z,81.97
2023-12-01T14:48:35.574Z,81.89
2023-12-01T14:51:03.346Z,82.43
2023-12-01T14:53:31.043Z,82.53
2023-12-01T14:55:58.684Z,81.35
2023-12-01T14:58:26.380Z,81.35
2023-12-01T15:00:54.694Z,80.59
2023-12-01T15:03:24.209Z,80.95
2023-12-01T15:05:51.917Z,80.42
2023-12-01T15:08:19.632Z,80.75
2023-12-01T15:10:47.334Z,80.47
2023-12-01T15:13:15.000Z,80.98
2023-12-01T15:15:42.838Z,81.29
2023-12-01T15:18:10.776Z,80.99
2023-12-01T15:20:39.923Z,79.86
2023-12-01T15:23:07.590Z,80.77
2023-12-01T15:25:37.266Z,79.88
2023-12-01T15:28:05.012Z,79.95
2023-12-01T15:30:34.004Z,80.44
2023-12-01T15:33:03.169Z,79.18
2023-12-01T15:35:30.997Z,79.07
2023-12-01T15:38:00.027Z,80.05
2023-12-01T15:40:28.179Z,78.66
2023-12-01T15:42:55.845Z,80.50
2023-12-01T15:45:23.608Z,78.15
2023-12-01T15:47:51.403Z,79.19
2023-12-01T15:50:19.086Z,79.06
2023-12-01T15:52:46.822Z,79.16
2023-12-01T15:55:15.830Z,78.91
2023-12-01T15:57:43.590Z,78.73
2023-12-01T16:00:13.145Z,79.55
2023-12-01T16:02:40.797Z,78.90
2023-12-01T16:05:09.270Z,79.48
2023-12-01T16:07:36.950Z,78.55
2023-12-01T16:10:04.835Z,77.82
2023-12-01T16:12:34.084Z,78.14
2023-12-01T16:15:09.064Z,78.08
2023-12-01T16:17:43.612Z,77.84
2023-12-01T16:20:12.005Z,77.90
2023-12-01T16:22:39.770Z,79.21
2023-12-01T16:25:09.269Z,78.51
2023-12-01T16:27:38.279Z,78.17
2023-12-01T16:30:07.647Z,78.47
2023-12-01T16:32:35.646Z,79.44
2023-12-01T16:35:05.936Z,79.93
2023-12-01T16:37:34.810Z,79.34
2023-12-01T16:40:02.554Z,80.25
2023-12-01T16:42:30.277Z,79.46
2023-12-01T16:44:59.406Z,78.93
2023-12-01T16:47:27.088Z,78.25
2023-12-01T16:49:54.787Z,78.59
2023-12-01T16:52:23.228Z,76.79
2023-12-01T16:54:51.693Z,78.32
2023-12-01T16:57:19.754Z,77.31
2023-12-01T16:59:48.236Z,76.92
2023-12-01T17:02:17.422Z,76.81
2023-12-01T17:04:45.229Z,76.45
2023-12-01T17:07:12.928Z,75.31
2023-12-01T17:09:42.042Z,77.45
2023-12-01T17:12:10.144Z,77.05
2023-12-01T17:14:38.957Z,76.46
2023-12-01T17:17:11.324Z,78.00
2023-12-01T17:19:40.339Z,78.47
2023-12-01T17:22:08.023Z,77.25
2023-12-01T17:24:35.715Z,78.26
2023-12-01T17:27:03.380Z,78.52
2023-12-01T17:29:33.753Z,77.88
2023-12-01T17:32:01.762Z,77.64
2023-12-01T17:34:29.512Z,76.65
2023-12-01T17:36:58.552Z,77.03
2023-12-01T17:39:26.591Z,77.24
2023-12-01T17:41:54.324Z,77.26
2023-12-01T17:44:22.000Z,77.16
2023-12-01T17:46:50.444Z,76.54
2023-12-01T17:49:18.185Z,77.91
2023-12-01T17:51:45.884Z,77.10
2023-12-01T17:54:15.788Z,77.72
2023-12-01T17:56:43.526Z,77.29
2023-12-01T17:59:11.166Z,77.97
2023-12-01T18:01:42.145Z,77.16
2023-12-01T18:04:09.987Z,77.35
2023-12-01T18:06:37.826Z,78.37
2023-12-01T18:09:05.530Z,77.56
2023-12-01T18:11:34.807Z,76.93
2023-12-01T18:14:03.653Z,77.87
2023-12-01T18:16:31.436Z,77.37
2023-12-01T18:18:59.213Z,77.68
2023-12-01T18:21:27.064Z,77.86
2023-12-01T18:23:56.140Z,78.26
2023-12-01T18:26:23.888Z,77.41
2023-12-01T18:28:52.918Z,77.26
2023-12-01T18:31:20.656Z,78.12
2023-12-01T18:33:48.450Z,78.64
2023-12-01T18:36:16.220Z,77.54
2023-12-01T18:38:43.964Z,77.69
2023-12-01T18:41:11.702Z,77.63
2023-12-01T18:43:39.378Z,77.58
2023-12-01T18:46:09.109Z,76.85
2023-12-01T18:48:36.904Z,76.54
2023-12-01T18:51:08.218Z,77.67
2023-12-01T18:53:36.036Z,77.86
2023-12-01T18:56:03.706Z,77.78
2023-12-01T18:58:31.538Z,77.27
2023-12-01T19:00:59.275Z,76.46
2023-12-01T19:03:28.522Z,77.20
2023-12-01T19:05:56.453Z,77.72
2023-12-01T19:08:24.480Z,77.96
2023-12-01T19:10:53.012Z,78.31
2023-12-01T19:13:20.928Z,78.68
2023-12-01T19:15:48.625Z,77.18
2023-12-01T19:18:16.382Z,77.40
2023-12-01T19:20:45.591Z,77.59
2023-12-01T19:23:13.248Z,77.43
2023-12-01T19:25:41.473Z,78.12
2023-12-01T19:28:09.182Z,77.44
2023-12-01T19:30:36.848Z,77.47
2023-12-01T19:33:04.959Z,78.79
2023-12-01T19:35:32.736Z,78.33
2023-12-01T19:38:01.804Z,78.52
2023-12-01T19:40:30.713Z,79.43
2023-12-01T19:42:58.443Z,78.52
2023-12-01T19:45:26.149Z,78.92
2023-12-01T19:47:53.917Z,79.29
2023-12-01T19:50:21.627Z,78.59
2023-12-01T19:52:49.283Z,79.21
2023-12-01T19:55:18.421Z,78.46
2023-12-01T19:57:46.283Z,77.84
2023-12-01T20:00:15.346Z,77.70
2023-12-01T20:02:43.062Z,77.81
2023-12-01T20:05:11.536Z,77.90
2023-12-01T20:07:39.227Z,78.16
2023-12-01T20:10:07.561Z,79.40
2023-12-01T20:12:39.407Z,79.53
2023-12-01T20:15:08.416Z,79.62
2023-12-01T20:17:36.276Z,78.44
2023-12-01T20:20:05.954Z,78.57
2023-12-01T20:22:33.657Z,78.88
2023-12-01T20:25:01.444Z,78.56
2023-12-01T20:27:29.159Z,79.34
2023-12-01T20:29:58.940Z,78.85
2023-12-01T20:32:26.664Z,78.40
2023-12-01T20:34:54.332Z,78.75
2023-12-01T20:37:22.251Z,78.27
2023-12-01T20:39:49.922Z,77.95
2023-12-01T20:42:17.620Z,78.18
2023-12-01T20:44:45.305Z,78.83
2023-12-01T20:47:14.396Z,78.86
2023-12-01T20:49:43.542Z,79.21
2023-12-01T20:52:11.554Z,79.15
2023-12-01T20:54:39.771Z,78.64
2023-12-01T20:57:07.727Z,79.49
2023-12-01T20:59:35.748Z,78.30
2023-12-01T21:02:03.979Z,77.69
2023-12-01T21:04:33.545Z,77.37
2023-12-01T21:07:01.309Z,78.40
2023-12-01T21:09:29.062Z,78.20
2023-12-01T21:11:56.781Z,78.65
2023-12-01T21:14:24.522Z,79.61
2023-12-01T21:16:52.177Z,79.85
2023-12-01T21:19:19.939Z,79.48
2023-12-01T21:21:49.123Z,79.92
2023-12-01T21:24:16.796Z,80.61
2023-12-01T21:26:44.867Z,80.25
2023-12-01T21:29:12.542Z,79.08
2023-12-01T21:31:40.217Z,78.81
2023-12-01T21:34:07.996Z,78.60
2023-12-01T21:36:35.769Z,79.01
2023-12-01T21:39:05.179Z,79.26
2023-12-01T21:41:32.829Z,79.43
2023-12-01T21:44:01.332Z,79.44
2023-12-01T21:46:29.039Z,79.14
2023-12-01T21:48:56.835Z,78.92
2023-12-01T21:51:24.622Z,80.03
2023-12-01T21:53:52.314Z,79.62
2023-12-01T21:56:21.371Z,79.76
2023-12-01T21:58:49.056Z,79.56
2023-12-01T22:01:17.822Z,78.79
2023-12-01T22:03:45.540Z,79.74
2023-12-01T22:06:13.349Z,78.86
2023-12-01T22:08:41.311Z,78.68
2023-12-01T22:11:09.411Z,79.11
2023-12-01T22:13:38.448Z,79.06
2023-12-01T22:16:06.732Z,78.87
2023-12-01T22:18:34.536Z,78.93
2023-12-01T22:21:03.269Z,79.97
2023-12-01T22:23:30.964Z,78.91
2023-12-01T22:25:58.646Z,79.27
2023-12-01T22:28:26.322Z,80.22
2023-12-01T22:30:55.359Z,79.72
2023-12-01T22:33:23.090Z,80.85
2023-12-01T22:35:50.849Z,80.02
2023-12-01T22:38:19.257Z,78.97
2023-12-01T22:40:46.942Z,78.53
2023-12-01T22:43:14.613Z,79.37
2023-12-01T22:45:42.284Z,80.20
2023-12-01T22:48:11.439Z,80.21
2023-12-01T22:50:39.161Z,79.20
2023-12-01T22:53:06.799Z,78.44
2023-12-01T22:55:34.475Z,78.66
2023-12-01T22:58:02.092Z,78.45
2023-12-01T23:00:32.063Z,79.46
2023-12-01T23:03:01.138Z,78.79
2023-12-01T23:05:30.517Z,78.91
2023-12-01T23:07:58.415Z,77.72
2023-12-01T23:10:26.152Z,78.76
2023-12-01T23:12:53.849Z,78.54
2023-12-01T23:15:21.790Z,79.27
2023-12-01T23:17:57.769Z,78.99
2023-12-01T23:20:27.345Z,77.96
2023-12-01T23:22:56.734Z,77.62
2023-12-01T23:25:24.762Z,78.61
2023-12-01T23:27:52.610Z,78.02
2023-12-01T23:30:22.771Z,78.47
2023-12-01T23:32:50.655Z,78.53
2023-12-01T23:35:18.396Z,78.83
2023-12-01T23:37:46.067Z,79.55
2023-12-01T23:40:15.234Z,79.80
2023-12-01T23:42:42.872Z,80.05
2023-12-01T23:45:11.062Z,80.21
2023-12-01T23:47:38.798Z,80.71
2023-12-01T23:50:07.004Z,80.08
2023-12-01T23:52:34.645Z,79.55
2023-12-01T23:55:02.662Z,80.18
2023-12-01T23:57:31.882Z,79.65
2023-12-01T23:59:59.648Z,79.17
